Garden Plain, KS

2:58 PM CST on March 05, 2015 (GMT -0600)
K0HYD, 2 Mi West of Goddard | Change Station
CLOSE
Current Station
Personal Weather Station
Location: Goddard, KS
Elevation: 1470 ft
Nearby Weather Stations

Elev 1470 ft 37.66 °N, 97.61 °W | Updated 13 minutes ago

Clear
Clear
43.0 °F
Feels Like 43 °F
N
1.0
Wind Variable Wind from West
Gusts 7.0 mph

Today
High -- | Low -- °F
--% Chance of Precip.
Yesterday
High -- | Low -- °F
Precip. -- in
6:56 AM 6:28 PM
Full, 100% visible
Pressure 30.46 in
Visibility 10.0 miles
Clouds Few 5500 ft
Windchill 43 °F
Dew Point 25 °F
Humidity 48%
Rainfall in
Snow Depth Not available.
UV 4 out of 12
Pollen .50 out of 12
Air Quality Not available.
Flu Activity Not available.
METAR KICT 052053Z 26010G14KT 210V300 10SM FEW055 07/M09 A3042 RMK AO2 SLP315 T00671094 56026

More Conditions Fewer Conditions

Pressure 30.46 in
Visibility 10.0 miles
Clouds Few 5500 ft
Windchill 43 °F
Dew Point 25 °F
Humidity 48%
Rainfall in
Snow Depth Not available.
UV 4 out of 12
Pollen .50 out of 12
Air Quality Not available.
Flu Activity Not available.
METAR KICT 052053Z 26010G14KT 210V300 10SM FEW055 07/M09 A3042 RMK AO2 SLP315 T00671094 56026

More Conditions Fewer Conditions

10-Day Weather Forecast

Almanac

Astronomy

Mar. 05, 2015 Rise Set
Actual Time
Civil Twilight
Nautical Twilight
Astronomical Twilight
Moon
Length of Visible Light
Length of Day
Tomorrow will be .
, % of the Moon is Illuminated

Today's Extremes

State Highs State Lows

Community

WunderPhotos

Upload Photos

1,802,964 photos uploaded!

WunderBlogs® & News

Nearby

Air Quality

  Air Quality AQ Index Pollutant
Not available.

Snow Depth

Station Depth Elevation

Earthquake Activity

City Distance Mag. Time & Date
Minimum magnitude displayed is 2.5.

Coastal Water Temperatures

Place Temperature

Nearby Weather Stations